CYTZ/YTZ METAR and TAF weather

Enter ICAO airport designator
Station Type Date Time Source
CYTZ METAR 2020/03/28 14:00 UTC NOAA

CYTZ 281400Z AUTO 07018G23KT 9SM -RA BKN070 OVC086 04/02 A2997 RMK SLP152


Station Type Date Time Source
CYTZ Decoded METAR 2020/03/28 14:00 UTC NOAA

Toronto Island Airport Automated Reporting Station, Canada (CYTZ) 43-38N 079-24W
Mar 28, 2020 - 10:00 AM EDT / 2020.03.28 1400 UTC
Wind: from the ENE (070 degrees) at 21 MPH (18 KT) gusting to 26 MPH (23 KT):0
Visibility: 9 mile(s):0
Sky conditions: overcast
Weather: light rain
Temperature: 39 F (4 C)
Dew Point: 35 F (2 C)
Relative Humidity: 86%
Pressure (altimeter): 29.97 in. Hg (1014 hPa)
ob: CYTZ 281400Z AUTO 07018G23KT 9SM -RA BKN070 OVC086 04/02 A2997 RMK SLP152
cycle: 14

Station Type Date Time Source
CYTZ TAF 2020/03/28 14:39 UTC NOAA

TAF CYTZ 281338Z 2814/2914 07015G25KT P6SM OVC090
TEMPO 2815/2818 P6SM -RA BKN020 OVC050
FM281800 07018G28KT P6SM BKN020 OVC040
TEMPO 2818/2821 5SM -RA -DZ BR OVC012
FM282100 07018G28KT 6SM BR OVC012
TEMPO 2821/2824 3SM -DZ BR OVC007
FM290000 07018G28KT 3SM -DZ BR OVC006
TEMPO 2900/2905 11/2SM -RA -DZ BR OVC004
FM290500 07018G28KT 2SM -RA BR OVC003
FM291100 07015KT 2SM SHRA BR OVC004 PROB30 2911/2914 1SM +TSRA BR OVC002CB
RMK FCST BASED ON AUTO OBS. NXT FCST BY 282000Z

Example: see airport list